sensor_id;sensor_type;location;lat;lon;timestamp;P1;durP1;ratioP1;P2;durP2;ratioP2
35364;SDS011;21464;48.112;11.530;2022-07-29T00:00:18;1.60;;;1.50;;
35364;SDS011;21464;48.112;11.530;2022-07-29T00:02:44;1.67;;;1.58;;
35364;SDS011;21464;48.112;11.530;2022-07-29T00:05:11;1.80;;;1.70;;
35364;SDS011;21464;48.112;11.530;2022-07-29T00:07:39;2.75;;;2.00;;
35364;SDS011;21464;48.112;11.530;2022-07-29T00:10:07;1.58;;;1.50;;
35364;SDS011;21464;48.112;11.530;2022-07-29T00:12:33;3.08;;;1.70;;
35364;SDS011;21464;48.112;11.530;2022-07-29T00:14:59;2.03;;;1.92;;
35364;SDS011;21464;48.112;11.530;2022-07-29T00:17:25;1.83;;;1.73;;
35364;SDS011;21464;48.112;11.530;2022-07-29T00:19:52;2.13;;;1.90;;
35364;SDS011;21464;48.112;11.530;2022-07-29T00:22:19;2.00;;;1.90;;
35364;SDS011;21464;48.112;11.530;2022-07-29T00:24:47;1.90;;;1.80;;
35364;SDS011;21464;48.112;11.530;2022-07-29T00:27:14;1.70;;;1.60;;
35364;SDS011;21464;48.112;11.530;2022-07-29T00:29:40;2.00;;;1.80;;
35364;SDS011;21464;48.112;11.530;2022-07-29T00:32:06;1.67;;;1.58;;
35364;SDS011;21464;48.112;11.530;2022-07-29T00:34:33;2.10;;;1.90;;
35364;SDS011;21464;48.112;11.530;2022-07-29T00:37:17;1.52;;;1.52;;
35364;SDS011;21464;48.112;11.530;2022-07-29T00:39:44;1.60;;;1.50;;
35364;SDS011;21464;48.112;11.530;2022-07-29T00:42:10;2.00;;;1.90;;
35364;SDS011;21464;48.112;11.530;2022-07-29T00:44:37;1.50;;;1.50;;
35364;SDS011;21464;48.112;11.530;2022-07-29T00:47:04;1.58;;;1.40;;
35364;SDS011;21464;48.112;11.530;2022-07-29T00:49:30;1.30;;;1.30;;
35364;SDS011;21464;48.112;11.530;2022-07-29T00:51:57;1.70;;;1.60;;
35364;SDS011;21464;48.112;11.530;2022-07-29T00:54:23;1.40;;;1.30;;
35364;SDS011;21464;48.112;11.530;2022-07-29T00:56:49;2.30;;;1.52;;
35364;SDS011;21464;48.112;11.530;2022-07-29T00:59:15;1.33;;;1.33;;
35364;SDS011;21464;48.112;11.530;2022-07-29T01:01:42;1.23;;;1.13;;
35364;SDS011;21464;48.112;11.530;2022-07-29T01:04:08;1.60;;;1.50;;
35364;SDS011;21464;48.112;11.530;2022-07-29T01:06:34;1.27;;;1.17;;
35364;SDS011;21464;48.112;11.530;2022-07-29T01:09:01;2.08;;;1.52;;
35364;SDS011;21464;48.112;11.530;2022-07-29T01:11:27;1.63;;;1.40;;
35364;SDS011;21464;48.112;11.530;2022-07-29T01:13:56;1.50;;;1.40;;
35364;SDS011;21464;48.112;11.530;2022-07-29T01:16:29;0.98;;;0.98;;
35364;SDS011;21464;48.112;11.530;2022-07-29T01:19:06;1.10;;;1.10;;
35364;SDS011;21464;48.112;11.530;2022-07-29T01:29:55;1.10;;;1.10;;
35364;SDS011;21464;48.112;11.530;2022-07-29T01:32:24;1.10;;;1.10;;
35364;SDS011;21464;48.112;11.530;2022-07-29T01:34:58;1.75;;;1.23;;
35364;SDS011;21464;48.112;11.530;2022-07-29T01:40:33;1.00;;;1.00;;
35364;SDS011;21464;48.112;11.530;2022-07-29T01:43:03;1.52;;;1.42;;
35364;SDS011;21464;48.112;11.530;2022-07-29T01:45:37;1.52;;;1.30;;
35364;SDS011;21464;48.112;11.530;2022-07-29T01:48:06;1.20;;;1.10;;
35364;SDS011;21464;48.112;11.530;2022-07-29T01:50:40;1.15;;;1.05;;
35364;SDS011;21464;48.112;11.530;2022-07-29T01:53:38;1.05;;;1.05;;
35364;SDS011;21464;48.112;11.530;2022-07-29T01:56:12;1.13;;;1.10;;
35364;SDS011;21464;48.112;11.530;2022-07-29T01:58:40;1.20;;;1.00;;
35364;SDS011;21464;48.112;11.530;2022-07-29T02:01:08;1.20;;;1.13;;
35364;SDS011;21464;48.112;11.530;2022-07-29T02:03:36;0.90;;;0.90;;
35364;SDS011;21464;48.112;11.530;2022-07-29T02:06:03;1.90;;;1.27;;
35364;SDS011;21464;48.112;11.530;2022-07-29T02:08:30;1.00;;;1.00;;
35364;SDS011;21464;48.112;11.530;2022-07-29T02:10:58;1.27;;;1.20;;
35364;SDS011;21464;48.112;11.530;2022-07-29T02:13:25;1.27;;;1.20;;
35364;SDS011;21464;48.112;11.530;2022-07-29T02:15:53;1.10;;;1.10;;
35364;SDS011;21464;48.112;11.530;2022-07-29T02:18:22;1.60;;;1.50;;
35364;SDS011;21464;48.112;11.530;2022-07-29T02:20:50;1.55;;;1.20;;
35364;SDS011;21464;48.112;11.530;2022-07-29T02:23:20;1.45;;;1.35;;
35364;SDS011;21464;48.112;11.530;2022-07-29T02:25:49;1.05;;;1.05;;
35364;SDS011;21464;48.112;11.530;2022-07-29T02:28:17;1.33;;;1.23;;
35364;SDS011;21464;48.112;11.530;2022-07-29T02:30:45;1.42;;;1.33;;
35364;SDS011;21464;48.112;11.530;2022-07-29T02:33:12;1.60;;;1.50;;
35364;SDS011;21464;48.112;11.530;2022-07-29T02:35:40;1.70;;;1.50;;
35364;SDS011;21464;48.112;11.530;2022-07-29T02:38:08;1.35;;;1.25;;
35364;SDS011;21464;48.112;11.530;2022-07-29T02:40:54;2.08;;;1.20;;
35364;SDS011;21464;48.112;11.530;2022-07-29T02:43:21;1.08;;;1.08;;
35364;SDS011;21464;48.112;11.530;2022-07-29T02:45:49;1.20;;;1.20;;
35364;SDS011;21464;48.112;11.530;2022-07-29T02:48:17;1.23;;;1.23;;
35364;SDS011;21464;48.112;11.530;2022-07-29T02:50:44;1.30;;;1.20;;
35364;SDS011;21464;48.112;11.530;2022-07-29T02:53:17;1.30;;;1.20;;
35364;SDS011;21464;48.112;11.530;2022-07-29T02:58:25;1.42;;;1.05;;
35364;SDS011;21464;48.112;11.530;2022-07-29T03:01:04;1.63;;;1.00;;
35364;SDS011;21464;48.112;11.530;2022-07-29T03:03:36;1.17;;;1.15;;
35364;SDS011;21464;48.112;11.530;2022-07-29T03:06:03;1.40;;;1.30;;
35364;SDS011;21464;48.112;11.530;2022-07-29T03:08:30;1.23;;;1.13;;
35364;SDS011;21464;48.112;11.530;2022-07-29T03:10:57;1.30;;;1.20;;
35364;SDS011;21464;48.112;11.530;2022-07-29T03:13:24;1.58;;;1.30;;
35364;SDS011;21464;48.112;11.530;2022-07-29T03:15:50;1.27;;;1.10;;
35364;SDS011;21464;48.112;11.530;2022-07-29T03:18:17;1.20;;;1.15;;
35364;SDS011;21464;48.112;11.530;2022-07-29T03:20:44;1.40;;;1.20;;
35364;SDS011;21464;48.112;11.530;2022-07-29T03:23:10;1.20;;;1.20;;
35364;SDS011;21464;48.112;11.530;2022-07-29T03:25:36;1.30;;;1.20;;
35364;SDS011;21464;48.112;11.530;2022-07-29T03:28:03;1.40;;;1.35;;
35364;SDS011;21464;48.112;11.530;2022-07-29T03:30:29;2.47;;;2.28;;
35364;SDS011;21464;48.112;11.530;2022-07-29T03:32:56;2.40;;;2.20;;
35364;SDS011;21464;48.112;11.530;2022-07-29T03:35:23;1.92;;;1.83;;
35364;SDS011;21464;48.112;11.530;2022-07-29T03:37:49;1.52;;;1.42;;
35364;SDS011;21464;48.112;11.530;2022-07-29T03:40:19;1.40;;;1.30;;
35364;SDS011;21464;48.112;11.530;2022-07-29T03:42:50;1.50;;;1.40;;
35364;SDS011;21464;48.112;11.530;2022-07-29T03:45:18;1.52;;;1.40;;
35364;SDS011;21464;48.112;11.530;2022-07-29T03:47:45;2.35;;;1.45;;
35364;SDS011;21464;48.112;11.530;2022-07-29T03:50:14;1.45;;;1.40;;
35364;SDS011;21464;48.112;11.530;2022-07-29T03:52:41;1.67;;;1.50;;
35364;SDS011;21464;48.112;11.530;2022-07-29T03:55:08;1.40;;;1.30;;
35364;SDS011;21464;48.112;11.530;2022-07-29T03:57:35;1.58;;;1.48;;
35364;SDS011;21464;48.112;11.530;2022-07-29T04:00:02;1.70;;;1.60;;
35364;SDS011;21464;48.112;11.530;2022-07-29T04:02:31;1.63;;;1.52;;
35364;SDS011;21464;48.112;11.530;2022-07-29T04:04:57;2.85;;;1.60;;
35364;SDS011;21464;48.112;11.530;2022-07-29T04:07:24;1.73;;;1.63;;
35364;SDS011;21464;48.112;11.530;2022-07-29T04:09:50;1.45;;;1.35;;
35364;SDS011;21464;48.112;11.530;2022-07-29T04:12:16;1.83;;;1.70;;
35364;SDS011;21464;48.112;11.530;2022-07-29T04:14:42;2.50;;;2.30;;
35364;SDS011;21464;48.112;11.530;2022-07-29T04:17:09;2.88;;;1.90;;
35364;SDS011;21464;48.112;11.530;2022-07-29T04:19:35;2.30;;;1.95;;
35364;SDS011;21464;48.112;11.530;2022-07-29T04:22:01;1.50;;;1.40;;
35364;SDS011;21464;48.112;11.530;2022-07-29T04:24:28;3.03;;;2.72;;
35364;SDS011;21464;48.112;11.530;2022-07-29T04:26:54;4.25;;;3.65;;
35364;SDS011;21464;48.112;11.530;2022-07-29T04:29:20;3.03;;;2.83;;
35364;SDS011;21464;48.112;11.530;2022-07-29T04:31:47;2.10;;;2.00;;
35364;SDS011;21464;48.112;11.530;2022-07-29T04:34:13;3.53;;;3.08;;
35364;SDS011;21464;48.112;11.530;2022-07-29T04:36:39;2.40;;;2.30;;
35364;SDS011;21464;48.112;11.530;2022-07-29T04:39:05;2.38;;;2.00;;
35364;SDS011;21464;48.112;11.530;2022-07-29T04:41:31;1.80;;;1.70;;
35364;SDS011;21464;48.112;11.530;2022-07-29T04:43:58;2.00;;;1.90;;
35364;SDS011;21464;48.112;11.530;2022-07-29T04:46:26;1.80;;;1.70;;
35364;SDS011;21464;48.112;11.530;2022-07-29T04:48:52;2.20;;;2.00;;
35364;SDS011;21464;48.112;11.530;2022-07-29T04:51:19;1.90;;;1.80;;
35364;SDS011;21464;48.112;11.530;2022-07-29T04:53:46;3.50;;;2.00;;
35364;SDS011;21464;48.112;11.530;2022-07-29T04:56:12;2.75;;;2.55;;
35364;SDS011;21464;48.112;11.530;2022-07-29T04:58:38;4.05;;;2.88;;
35364;SDS011;21464;48.112;11.530;2022-07-29T05:01:04;3.70;;;3.40;;
35364;SDS011;21464;48.112;11.530;2022-07-29T05:03:31;4.45;;;3.13;;
35364;SDS011;21464;48.112;11.530;2022-07-29T05:05:57;3.90;;;3.50;;
35364;SDS011;21464;48.112;11.530;2022-07-29T05:08:23;2.90;;;2.70;;
35364;SDS011;21464;48.112;11.530;2022-07-29T05:10:50;2.00;;;1.80;;
35364;SDS011;21464;48.112;11.530;2022-07-29T05:13:16;3.20;;;2.33;;
35364;SDS011;21464;48.112;11.530;2022-07-29T05:15:42;2.13;;;2.03;;
35364;SDS011;21464;48.112;11.530;2022-07-29T05:18:08;2.20;;;2.10;;
35364;SDS011;21464;48.112;11.530;2022-07-29T05:20:34;2.55;;;2.05;;
35364;SDS011;21464;48.112;11.530;2022-07-29T05:23:01;2.08;;;1.88;;
35364;SDS011;21464;48.112;11.530;2022-07-29T05:25:28;3.00;;;2.70;;
35364;SDS011;21464;48.112;11.530;2022-07-29T05:27:55;3.03;;;2.67;;
35364;SDS011;21464;48.112;11.530;2022-07-29T05:30:22;2.05;;;1.90;;
35364;SDS011;21464;48.112;11.530;2022-07-29T05:32:48;1.67;;;1.58;;
35364;SDS011;21464;48.112;11.530;2022-07-29T05:35:14;2.85;;;1.77;;
35364;SDS011;21464;48.112;11.530;2022-07-29T05:37:41;2.90;;;1.85;;
35364;SDS011;21464;48.112;11.530;2022-07-29T05:40:08;1.83;;;1.70;;
35364;SDS011;21464;48.112;11.530;2022-07-29T05:42:34;1.98;;;1.88;;
35364;SDS011;21464;48.112;11.530;2022-07-29T05:45:01;2.90;;;1.95;;
35364;SDS011;21464;48.112;11.530;2022-07-29T05:47:28;1.80;;;1.70;;
35364;SDS011;21464;48.112;11.530;2022-07-29T05:49:55;2.55;;;1.90;;
35364;SDS011;21464;48.112;11.530;2022-07-29T05:52:21;1.88;;;1.77;;
35364;SDS011;21464;48.112;11.530;2022-07-29T05:54:47;2.50;;;2.00;;
35364;SDS011;21464;48.112;11.530;2022-07-29T05:57:20;1.77;;;1.67;;
35364;SDS011;21464;48.112;11.530;2022-07-29T05:59:48;2.08;;;1.90;;
35364;SDS011;21464;48.112;11.530;2022-07-29T06:02:14;1.80;;;1.67;;
35364;SDS011;21464;48.112;11.530;2022-07-29T06:04:41;2.15;;;1.75;;
35364;SDS011;21464;48.112;11.530;2022-07-29T06:07:07;2.03;;;1.92;;
35364;SDS011;21464;48.112;11.530;2022-07-29T06:09:33;2.22;;;1.88;;
35364;SDS011;21464;48.112;11.530;2022-07-29T06:12:00;2.17;;;2.08;;
35364;SDS011;21464;48.112;11.530;2022-07-29T06:14:27;1.92;;;1.70;;
35364;SDS011;21464;48.112;11.530;2022-07-29T06:16:54;1.80;;;1.70;;
35364;SDS011;21464;48.112;11.530;2022-07-29T06:19:20;2.10;;;1.83;;
35364;SDS011;21464;48.112;11.530;2022-07-29T06:21:47;2.03;;;1.83;;
35364;SDS011;21464;48.112;11.530;2022-07-29T06:24:14;1.90;;;1.80;;
35364;SDS011;21464;48.112;11.530;2022-07-29T06:26:40;2.00;;;1.90;;
35364;SDS011;21464;48.112;11.530;2022-07-29T06:29:07;1.80;;;1.70;;
35364;SDS011;21464;48.112;11.530;2022-07-29T06:31:36;1.98;;;1.83;;
35364;SDS011;21464;48.112;11.530;2022-07-29T06:34:03;1.88;;;1.70;;
35364;SDS011;21464;48.112;11.530;2022-07-29T06:36:29;2.50;;;1.70;;
35364;SDS011;21464;48.112;11.530;2022-07-29T06:38:55;1.90;;;1.80;;
35364;SDS011;21464;48.112;11.530;2022-07-29T06:41:22;2.00;;;1.90;;
35364;SDS011;21464;48.112;11.530;2022-07-29T06:43:49;2.08;;;1.98;;
35364;SDS011;21464;48.112;11.530;2022-07-29T06:46:17;2.60;;;1.92;;
35364;SDS011;21464;48.112;11.530;2022-07-29T06:48:44;2.30;;;2.13;;
35364;SDS011;21464;48.112;11.530;2022-07-29T06:51:10;2.50;;;1.80;;
35364;SDS011;21464;48.112;11.530;2022-07-29T06:53:37;2.25;;;2.05;;
35364;SDS011;21464;48.112;11.530;2022-07-29T06:56:04;2.50;;;1.90;;
35364;SDS011;21464;48.112;11.530;2022-07-29T06:58:32;2.88;;;2.55;;
35364;SDS011;21464;48.112;11.530;2022-07-29T07:00:58;2.05;;;1.90;;
35364;SDS011;21464;48.112;11.530;2022-07-29T07:03:26;2.65;;;2.45;;
35364;SDS011;21464;48.112;11.530;2022-07-29T07:05:53;2.58;;;2.22;;
35364;SDS011;21464;48.112;11.530;2022-07-29T07:08:20;2.75;;;2.25;;
35364;SDS011;21464;48.112;11.530;2022-07-29T07:10:47;6.65;;;5.40;;
35364;SDS011;21464;48.112;11.530;2022-07-29T07:13:14;4.28;;;3.88;;
35364;SDS011;21464;48.112;11.530;2022-07-29T07:15:45;4.78;;;2.90;;
35364;SDS011;21464;48.112;11.530;2022-07-29T07:18:13;2.10;;;1.95;;
35364;SDS011;21464;48.112;11.530;2022-07-29T07:20:40;1.80;;;1.70;;
35364;SDS011;21464;48.112;11.530;2022-07-29T07:23:07;3.15;;;1.65;;
35364;SDS011;21464;48.112;11.530;2022-07-29T07:25:33;2.60;;;2.03;;
35364;SDS011;21464;48.112;11.530;2022-07-29T07:28:00;2.65;;;1.75;;
35364;SDS011;21464;48.112;11.530;2022-07-29T07:30:26;1.52;;;1.40;;
35364;SDS011;21464;48.112;11.530;2022-07-29T07:32:53;2.42;;;1.40;;
35364;SDS011;21464;48.112;11.530;2022-07-29T07:35:21;1.95;;;1.70;;
35364;SDS011;21464;48.112;11.530;2022-07-29T07:37:47;1.73;;;1.50;;
35364;SDS011;21464;48.112;11.530;2022-07-29T07:40:13;1.73;;;1.40;;
35364;SDS011;21464;48.112;11.530;2022-07-29T07:42:40;1.90;;;1.80;;
35364;SDS011;21464;48.112;11.530;2022-07-29T07:45:07;2.10;;;1.15;;
35364;SDS011;21464;48.112;11.530;2022-07-29T07:47:38;1.73;;;1.40;;
35364;SDS011;21464;48.112;11.530;2022-07-29T07:50:05;1.67;;;1.58;;
35364;SDS011;21464;48.112;11.530;2022-07-29T07:52:32;2.65;;;1.60;;
35364;SDS011;21464;48.112;11.530;2022-07-29T07:54:59;1.88;;;1.38;;
35364;SDS011;21464;48.112;11.530;2022-07-29T07:57:25;1.75;;;1.65;;
35364;SDS011;21464;48.112;11.530;2022-07-29T07:59:51;1.55;;;1.50;;
35364;SDS011;21464;48.112;11.530;2022-07-29T08:02:17;1.60;;;1.50;;
35364;SDS011;21464;48.112;11.530;2022-07-29T08:04:44;1.77;;;1.58;;
35364;SDS011;21464;48.112;11.530;2022-07-29T08:07:10;1.77;;;1.50;;
35364;SDS011;21464;48.112;11.530;2022-07-29T08:09:36;1.75;;;1.40;;
35364;SDS011;21464;48.112;11.530;2022-07-29T08:12:02;1.65;;;1.55;;
35364;SDS011;21464;48.112;11.530;2022-07-29T08:14:30;1.60;;;1.50;;
35364;SDS011;21464;48.112;11.530;2022-07-29T08:16:57;2.08;;;1.88;;
35364;SDS011;21464;48.112;11.530;2022-07-29T08:19:23;2.55;;;2.35;;
35364;SDS011;21464;48.112;11.530;2022-07-29T08:21:49;1.92;;;1.83;;
35364;SDS011;21464;48.112;11.530;2022-07-29T08:24:16;1.77;;;1.67;;
35364;SDS011;21464;48.112;11.530;2022-07-29T08:27:00;1.70;;;1.60;;
35364;SDS011;21464;48.112;11.530;2022-07-29T08:29:27;1.65;;;1.60;;
35364;SDS011;21464;48.112;11.530;2022-07-29T08:31:53;2.13;;;1.70;;
35364;SDS011;21464;48.112;11.530;2022-07-29T08:34:19;1.85;;;1.60;;
35364;SDS011;21464;48.112;11.530;2022-07-29T08:36:45;2.83;;;1.92;;
35364;SDS011;21464;48.112;11.530;2022-07-29T08:39:12;1.90;;;1.70;;
35364;SDS011;21464;48.112;11.530;2022-07-29T08:41:38;2.17;;;1.83;;
35364;SDS011;21464;48.112;11.530;2022-07-29T08:44:04;2.20;;;2.00;;
35364;SDS011;21464;48.112;11.530;2022-07-29T08:46:30;2.30;;;2.10;;
35364;SDS011;21464;48.112;11.530;2022-07-29T08:48:57;2.30;;;2.10;;
35364;SDS011;21464;48.112;11.530;2022-07-29T08:51:23;1.98;;;1.88;;
35364;SDS011;21464;48.112;11.530;2022-07-29T08:53:50;2.10;;;2.00;;
35364;SDS011;21464;48.112;11.530;2022-07-29T08:56:17;2.33;;;2.17;;
35364;SDS011;21464;48.112;11.530;2022-07-29T08:58:45;2.42;;;2.20;;
35364;SDS011;21464;48.112;11.530;2022-07-29T09:01:16;2.22;;;2.08;;
35364;SDS011;21464;48.112;11.530;2022-07-29T09:03:43;2.45;;;2.20;;
35364;SDS011;21464;48.112;11.530;2022-07-29T09:06:17;2.40;;;2.00;;
35364;SDS011;21464;48.112;11.530;2022-07-29T09:08:44;2.50;;;2.30;;
35364;SDS011;21464;48.112;11.530;2022-07-29T09:11:11;2.55;;;2.35;;
35364;SDS011;21464;48.112;11.530;2022-07-29T09:13:38;2.30;;;2.20;;
35364;SDS011;21464;48.112;11.530;2022-07-29T09:16:04;2.40;;;2.20;;
35364;SDS011;21464;48.112;11.530;2022-07-29T09:21:01;2.78;;;2.22;;
35364;SDS011;21464;48.112;11.530;2022-07-29T09:26:39;2.17;;;2.08;;
35364;SDS011;21464;48.112;11.530;2022-07-29T09:29:10;2.47;;;2.10;;
35364;SDS011;21464;48.112;11.530;2022-07-29T09:31:38;2.10;;;2.00;;
35364;SDS011;21464;48.112;11.530;2022-07-29T09:34:06;2.85;;;2.17;;
35364;SDS011;21464;48.112;11.530;2022-07-29T09:36:45;2.53;;;2.33;;
35364;SDS011;21464;48.112;11.530;2022-07-29T09:39:13;2.40;;;2.20;;
35364;SDS011;21464;48.112;11.530;2022-07-29T09:41:50;2.40;;;2.30;;
35364;SDS011;21464;48.112;11.530;2022-07-29T09:44:19;2.85;;;2.33;;
35364;SDS011;21464;48.112;11.530;2022-07-29T09:46:59;2.40;;;2.30;;
35364;SDS011;21464;48.112;11.530;2022-07-29T09:49:33;2.38;;;2.17;;
35364;SDS011;21464;48.112;11.530;2022-07-29T09:52:15;4.50;;;2.60;;
35364;SDS011;21464;48.112;11.530;2022-07-29T09:54:42;2.97;;;2.78;;
35364;SDS011;21464;48.112;11.530;2022-07-29T09:57:08;2.67;;;2.47;;
35364;SDS011;21464;48.112;11.530;2022-07-29T09:59:38;2.60;;;2.40;;
35364;SDS011;21464;48.112;11.530;2022-07-29T10:02:11;2.60;;;2.47;;
35364;SDS011;21464;48.112;11.530;2022-07-29T10:04:39;2.50;;;2.30;;
35364;SDS011;21464;48.112;11.530;2022-07-29T10:07:06;3.95;;;2.58;;
35364;SDS011;21464;48.112;11.530;2022-07-29T10:09:33;3.38;;;2.63;;
35364;SDS011;21464;48.112;11.530;2022-07-29T10:14:29;2.92;;;2.72;;
35364;SDS011;21464;48.112;11.530;2022-07-29T10:16:57;2.90;;;2.60;;
35364;SDS011;21464;48.112;11.530;2022-07-29T10:19:25;2.42;;;2.20;;
35364;SDS011;21464;48.112;11.530;2022-07-29T10:21:53;2.70;;;2.50;;
35364;SDS011;21464;48.112;11.530;2022-07-29T10:24:20;3.67;;;3.20;;
35364;SDS011;21464;48.112;11.530;2022-07-29T10:26:46;2.47;;;2.30;;
35364;SDS011;21464;48.112;11.530;2022-07-29T10:29:13;2.70;;;2.45;;
35364;SDS011;21464;48.112;11.530;2022-07-29T10:31:43;2.85;;;2.40;;
35364;SDS011;21464;48.112;11.530;2022-07-29T10:37:22;3.22;;;3.03;;
35364;SDS011;21464;48.112;11.530;2022-07-29T10:40:08;2.65;;;2.45;;
35364;SDS011;21464;48.112;11.530;2022-07-29T10:43:14;2.50;;;2.30;;
35364;SDS011;21464;48.112;11.530;2022-07-29T10:45:45;3.22;;;2.30;;
35364;SDS011;21464;48.112;11.530;2022-07-29T10:48:12;3.30;;;2.67;;
35364;SDS011;21464;48.112;11.530;2022-07-29T10:50:51;4.32;;;2.50;;
35364;SDS011;21464;48.112;11.530;2022-07-29T10:53:20;2.55;;;2.17;;
35364;SDS011;21464;48.112;11.530;2022-07-29T10:55:47;3.15;;;2.53;;
35364;SDS011;21464;48.112;11.530;2022-07-29T11:00:50;4.15;;;2.88;;
35364;SDS011;21464;48.112;11.530;2022-07-29T11:06:09;2.55;;;2.45;;
35364;SDS011;21464;48.112;11.530;2022-07-29T11:08:35;3.10;;;2.80;;
35364;SDS011;21464;48.112;11.530;2022-07-29T11:13:47;2.95;;;2.42;;
35364;SDS011;21464;48.112;11.530;2022-07-29T11:16:16;3.00;;;2.70;;
35364;SDS011;21464;48.112;11.530;2022-07-29T11:21:39;3.55;;;2.50;;
35364;SDS011;21464;48.112;11.530;2022-07-29T11:29:51;3.05;;;2.60;;
35364;SDS011;21464;48.112;11.530;2022-07-29T11:32:19;3.30;;;2.80;;
35364;SDS011;21464;48.112;11.530;2022-07-29T11:34:47;3.83;;;2.33;;
35364;SDS011;21464;48.112;11.530;2022-07-29T11:37:14;4.35;;;2.22;;
35364;SDS011;21464;48.112;11.530;2022-07-29T11:40:27;2.65;;;2.38;;
35364;SDS011;21464;48.112;11.530;2022-07-29T11:47:40;3.10;;;2.85;;
35364;SDS011;21464;48.112;11.530;2022-07-29T11:50:31;4.80;;;4.40;;
35364;SDS011;21464;48.112;11.530;2022-07-29T11:53:00;2.72;;;2.53;;
35364;SDS011;21464;48.112;11.530;2022-07-29T11:55:27;3.53;;;2.67;;
35364;SDS011;21464;48.112;11.530;2022-07-29T11:58:00;2.60;;;2.40;;
35364;SDS011;21464;48.112;11.530;2022-07-29T12:00:27;2.47;;;2.28;;
35364;SDS011;21464;48.112;11.530;2022-07-29T12:02:54;2.13;;;2.03;;
35364;SDS011;21464;48.112;11.530;2022-07-29T12:05:29;2.95;;;2.75;;
35364;SDS011;21464;48.112;11.530;2022-07-29T12:08:03;2.67;;;2.47;;
35364;SDS011;21464;48.112;11.530;2022-07-29T12:10:33;3.05;;;2.75;;
35364;SDS011;21464;48.112;11.530;2022-07-29T12:12:59;2.60;;;2.40;;
35364;SDS011;21464;48.112;11.530;2022-07-29T12:15:26;3.05;;;2.55;;
35364;SDS011;21464;48.112;11.530;2022-07-29T12:17:52;3.42;;;2.38;;
35364;SDS011;21464;48.112;11.530;2022-07-29T12:20:25;2.80;;;2.60;;
35364;SDS011;21464;48.112;11.530;2022-07-29T12:22:53;2.92;;;2.20;;
35364;SDS011;21464;48.112;11.530;2022-07-29T12:25:20;3.20;;;2.90;;
35364;SDS011;21464;48.112;11.530;2022-07-29T12:27:57;3.33;;;2.65;;
35364;SDS011;21464;48.112;11.530;2022-07-29T12:30:33;2.75;;;2.55;;
35364;SDS011;21464;48.112;11.530;2022-07-29T12:33:28;2.53;;;2.33;;
35364;SDS011;21464;48.112;11.530;2022-07-29T12:35:58;2.70;;;2.50;;
35364;SDS011;21464;48.112;11.530;2022-07-29T12:38:26;2.78;;;2.58;;
35364;SDS011;21464;48.112;11.530;2022-07-29T12:40:53;2.70;;;2.50;;
35364;SDS011;21464;48.112;11.530;2022-07-29T12:45:50;2.80;;;2.60;;
35364;SDS011;21464;48.112;11.530;2022-07-29T12:48:38;2.88;;;2.67;;
35364;SDS011;21464;48.112;11.530;2022-07-29T12:51:06;3.75;;;3.45;;
35364;SDS011;21464;48.112;11.530;2022-07-29T12:53:34;4.82;;;2.63;;
35364;SDS011;21464;48.112;11.530;2022-07-29T12:56:02;3.60;;;2.47;;
35364;SDS011;21464;48.112;11.530;2022-07-29T12:58:33;2.50;;;2.30;;
35364;SDS011;21464;48.112;11.530;2022-07-29T13:01:08;2.70;;;2.50;;
35364;SDS011;21464;48.112;11.530;2022-07-29T13:03:48;2.65;;;2.45;;
35364;SDS011;21464;48.112;11.530;2022-07-29T13:09:03;2.85;;;2.47;;
35364;SDS011;21464;48.112;11.530;2022-07-29T13:11:40;2.92;;;2.70;;
35364;SDS011;21464;48.112;11.530;2022-07-29T13:14:12;4.20;;;2.63;;
35364;SDS011;21464;48.112;11.530;2022-07-29T13:19:42;2.67;;;2.47;;
35364;SDS011;21464;48.112;11.530;2022-07-29T13:22:16;4.18;;;2.42;;
35364;SDS011;21464;48.112;11.530;2022-07-29T13:24:51;5.40;;;2.40;;
35364;SDS011;21464;48.112;11.530;2022-07-29T13:27:18;2.88;;;2.55;;
35364;SDS011;21464;48.112;11.530;2022-07-29T13:29:50;3.45;;;2.58;;
35364;SDS011;21464;48.112;11.530;2022-07-29T13:32:18;4.30;;;2.38;;
35364;SDS011;21464;48.112;11.530;2022-07-29T13:34:45;2.92;;;2.63;;
35364;SDS011;21464;48.112;11.530;2022-07-29T13:37:11;3.03;;;2.72;;
35364;SDS011;21464;48.112;11.530;2022-07-29T13:39:38;2.88;;;2.60;;
35364;SDS011;21464;48.112;11.530;2022-07-29T13:42:04;3.13;;;2.63;;
35364;SDS011;21464;48.112;11.530;2022-07-29T13:44:32;3.78;;;2.90;;
35364;SDS011;21464;48.112;11.530;2022-07-29T13:46:58;4.85;;;2.90;;
35364;SDS011;21464;48.112;11.530;2022-07-29T13:49:27;2.95;;;2.75;;
35364;SDS011;21464;48.112;11.530;2022-07-29T13:51:53;2.63;;;2.42;;
35364;SDS011;21464;48.112;11.530;2022-07-29T13:54:20;3.38;;;2.65;;
35364;SDS011;21464;48.112;11.530;2022-07-29T13:56:46;3.53;;;2.67;;
35364;SDS011;21464;48.112;11.530;2022-07-29T13:59:12;2.95;;;2.63;;
35364;SDS011;21464;48.112;11.530;2022-07-29T14:01:39;2.95;;;2.72;;
35364;SDS011;21464;48.112;11.530;2022-07-29T14:04:08;4.05;;;2.40;;
35364;SDS011;21464;48.112;11.530;2022-07-29T14:06:35;4.00;;;2.65;;
35364;SDS011;21464;48.112;11.530;2022-07-29T14:09:02;2.47;;;2.28;;
35364;SDS011;21464;48.112;11.530;2022-07-29T14:11:32;3.67;;;2.47;;
35364;SDS011;21464;48.112;11.530;2022-07-29T14:13:58;3.08;;;2.50;;
35364;SDS011;21464;48.112;11.530;2022-07-29T14:16:25;2.50;;;2.30;;
35364;SDS011;21464;48.112;11.530;2022-07-29T14:18:51;2.33;;;2.22;;
35364;SDS011;21464;48.112;11.530;2022-07-29T14:21:17;2.25;;;2.05;;
35364;SDS011;21464;48.112;11.530;2022-07-29T14:23:44;2.85;;;2.30;;
35364;SDS011;21464;48.112;11.530;2022-07-29T14:26:10;3.03;;;2.03;;
35364;SDS011;21464;48.112;11.530;2022-07-29T14:28:36;2.20;;;2.10;;
35364;SDS011;21464;48.112;11.530;2022-07-29T14:31:02;2.70;;;2.03;;
35364;SDS011;21464;48.112;11.530;2022-07-29T14:33:29;2.00;;;1.90;;
35364;SDS011;21464;48.112;11.530;2022-07-29T14:35:55;2.28;;;2.08;;
35364;SDS011;21464;48.112;11.530;2022-07-29T14:38:21;2.47;;;2.20;;
35364;SDS011;21464;48.112;11.530;2022-07-29T14:40:47;3.42;;;2.33;;
35364;SDS011;21464;48.112;11.530;2022-07-29T14:43:13;3.50;;;2.10;;
35364;SDS011;21464;48.112;11.530;2022-07-29T14:45:40;2.33;;;2.08;;
35364;SDS011;21464;48.112;11.530;2022-07-29T14:48:06;2.78;;;2.17;;
35364;SDS011;21464;48.112;11.530;2022-07-29T14:50:33;2.42;;;2.20;;
35364;SDS011;21464;48.112;11.530;2022-07-29T14:52:59;2.38;;;2.28;;
35364;SDS011;21464;48.112;11.530;2022-07-29T14:55:26;3.72;;;2.38;;
35364;SDS011;21464;48.112;11.530;2022-07-29T14:57:52;2.22;;;2.13;;
35364;SDS011;21464;48.112;11.530;2022-07-29T15:00:19;2.42;;;2.22;;
35364;SDS011;21464;48.112;11.530;2022-07-29T15:02:46;2.50;;;2.30;;
35364;SDS011;21464;48.112;11.530;2022-07-29T15:05:13;2.47;;;2.20;;
35364;SDS011;21464;48.112;11.530;2022-07-29T15:07:39;2.00;;;1.90;;
35364;SDS011;21464;48.112;11.530;2022-07-29T15:10:06;2.33;;;2.17;;
35364;SDS011;21464;48.112;11.530;2022-07-29T15:12:32;2.80;;;2.08;;
35364;SDS011;21464;48.112;11.530;2022-07-29T15:14:58;2.38;;;2.28;;
35364;SDS011;21464;48.112;11.530;2022-07-29T15:17:25;2.13;;;2.03;;
35364;SDS011;21464;48.112;11.530;2022-07-29T15:19:51;2.50;;;2.30;;
35364;SDS011;21464;48.112;11.530;2022-07-29T15:22:17;3.35;;;2.40;;
35364;SDS011;21464;48.112;11.530;2022-07-29T15:24:43;2.20;;;2.05;;
35364;SDS011;21464;48.112;11.530;2022-07-29T15:27:10;4.80;;;2.30;;
35364;SDS011;21464;48.112;11.530;2022-07-29T15:29:43;3.17;;;2.80;;
35364;SDS011;21464;48.112;11.530;2022-07-29T15:32:10;2.67;;;2.50;;
35364;SDS011;21464;48.112;11.530;2022-07-29T15:34:37;2.70;;;2.50;;